sensor_id;sensor_type;location;lat;lon;timestamp;P1;durP1;ratioP1;P2;durP2;ratioP2
50932;SDS011;36921;49.006;9.292;2024-01-16T00:01:06;7.30;;;3.03;;
50932;SDS011;36921;49.006;9.292;2024-01-16T00:03:32;8.35;;;2.85;;
50932;SDS011;36921;49.006;9.292;2024-01-16T00:05:58;7.97;;;2.90;;
50932;SDS011;36921;49.006;9.292;2024-01-16T00:08:23;6.68;;;2.70;;
50932;SDS011;36921;49.006;9.292;2024-01-16T00:10:50;8.10;;;3.00;;
50932;SDS011;36921;49.006;9.292;2024-01-16T00:13:16;6.95;;;2.58;;
50932;SDS011;36921;49.006;9.292;2024-01-16T00:15:43;5.97;;;2.63;;
50932;SDS011;36921;49.006;9.292;2024-01-16T00:18:08;6.65;;;2.78;;
50932;SDS011;36921;49.006;9.292;2024-01-16T00:20:34;6.22;;;2.75;;
50932;SDS011;36921;49.006;9.292;2024-01-16T00:23:00;7.55;;;2.83;;
50932;SDS011;36921;49.006;9.292;2024-01-16T00:25:26;11.70;;;3.67;;
50932;SDS011;36921;49.006;9.292;2024-01-16T00:27:51;8.55;;;3.38;;
50932;SDS011;36921;49.006;9.292;2024-01-16T00:30:31;11.18;;;2.90;;
50932;SDS011;36921;49.006;9.292;2024-01-16T00:32:57;6.85;;;2.70;;
50932;SDS011;36921;49.006;9.292;2024-01-16T00:35:22;6.25;;;3.00;;
50932;SDS011;36921;49.006;9.292;2024-01-16T00:37:48;6.88;;;2.80;;
50932;SDS011;36921;49.006;9.292;2024-01-16T00:40:13;6.43;;;2.90;;
50932;SDS011;36921;49.006;9.292;2024-01-16T00:42:39;9.98;;;3.15;;
50932;SDS011;36921;49.006;9.292;2024-01-16T00:45:05;6.30;;;2.67;;
50932;SDS011;36921;49.006;9.292;2024-01-16T00:47:30;7.63;;;2.90;;
50932;SDS011;36921;49.006;9.292;2024-01-16T00:49:56;7.60;;;3.10;;
50932;SDS011;36921;49.006;9.292;2024-01-16T00:52:21;8.10;;;3.58;;
50932;SDS011;36921;49.006;9.292;2024-01-16T00:54:47;6.82;;;3.05;;
50932;SDS011;36921;49.006;9.292;2024-01-16T00:57:12;13.40;;;3.30;;
50932;SDS011;36921;49.006;9.292;2024-01-16T00:59:40;8.48;;;3.20;;
50932;SDS011;36921;49.006;9.292;2024-01-16T01:02:05;5.85;;;2.97;;
50932;SDS011;36921;49.006;9.292;2024-01-16T01:04:32;6.22;;;3.20;;
50932;SDS011;36921;49.006;9.292;2024-01-16T01:06:58;7.55;;;2.78;;
50932;SDS011;36921;49.006;9.292;2024-01-16T01:19:28;7.35;;;2.88;;
50932;SDS011;36921;49.006;9.292;2024-01-16T01:21:53;7.05;;;2.85;;
50932;SDS011;36921;49.006;9.292;2024-01-16T01:24:19;13.98;;;3.08;;
50932;SDS011;36921;49.006;9.292;2024-01-16T01:26:44;6.25;;;2.25;;
50932;SDS011;36921;49.006;9.292;2024-01-16T01:29:10;10.43;;;3.35;;
50932;SDS011;36921;49.006;9.292;2024-01-16T01:31:35;8.73;;;2.85;;
50932;SDS011;36921;49.006;9.292;2024-01-16T01:34:01;6.38;;;3.00;;
50932;SDS011;36921;49.006;9.292;2024-01-16T01:36:26;9.48;;;3.25;;
50932;SDS011;36921;49.006;9.292;2024-01-16T01:38:52;10.55;;;3.30;;
50932;SDS011;36921;49.006;9.292;2024-01-16T01:41:17;6.03;;;3.00;;
50932;SDS011;36921;49.006;9.292;2024-01-16T01:43:43;4.97;;;2.67;;
50932;SDS011;36921;49.006;9.292;2024-01-16T01:46:13;6.72;;;2.60;;
50932;SDS011;36921;49.006;9.292;2024-01-16T01:48:41;4.30;;;2.90;;
50932;SDS011;36921;49.006;9.292;2024-01-16T01:51:10;6.18;;;2.70;;
50932;SDS011;36921;49.006;9.292;2024-01-16T01:53:39;8.13;;;3.30;;
50932;SDS011;36921;49.006;9.292;2024-01-16T01:56:08;9.98;;;3.33;;
50932;SDS011;36921;49.006;9.292;2024-01-16T01:58:36;7.38;;;2.78;;
50932;SDS011;36921;49.006;9.292;2024-01-16T02:01:03;7.47;;;3.40;;
50932;SDS011;36921;49.006;9.292;2024-01-16T02:23:41;8.75;;;2.97;;
50932;SDS011;36921;49.006;9.292;2024-01-16T02:26:07;6.20;;;2.65;;
50932;SDS011;36921;49.006;9.292;2024-01-16T02:28:33;6.40;;;2.70;;
50932;SDS011;36921;49.006;9.292;2024-01-16T02:30:58;9.90;;;3.13;;
50932;SDS011;36921;49.006;9.292;2024-01-16T02:33:24;9.80;;;2.97;;
50932;SDS011;36921;49.006;9.292;2024-01-16T02:35:49;6.97;;;2.65;;
50932;SDS011;36921;49.006;9.292;2024-01-16T02:38:14;7.25;;;2.72;;
50932;SDS011;36921;49.006;9.292;2024-01-16T02:40:40;10.07;;;3.55;;
50932;SDS011;36921;49.006;9.292;2024-01-16T02:43:05;8.93;;;2.67;;
50932;SDS011;36921;49.006;9.292;2024-01-16T02:45:31;8.80;;;3.03;;
50932;SDS011;36921;49.006;9.292;2024-01-16T02:47:58;6.78;;;2.85;;
50932;SDS011;36921;49.006;9.292;2024-01-16T02:50:23;7.85;;;3.10;;
50932;SDS011;36921;49.006;9.292;2024-01-16T02:52:49;5.95;;;2.75;;
50932;SDS011;36921;49.006;9.292;2024-01-16T02:55:14;9.40;;;3.67;;
50932;SDS011;36921;49.006;9.292;2024-01-16T02:57:40;9.38;;;3.40;;
50932;SDS011;36921;49.006;9.292;2024-01-16T03:00:05;8.13;;;2.80;;
50932;SDS011;36921;49.006;9.292;2024-01-16T03:02:32;7.55;;;3.78;;
50932;SDS011;36921;49.006;9.292;2024-01-16T03:04:58;6.00;;;2.97;;
50932;SDS011;36921;49.006;9.292;2024-01-16T03:07:24;8.50;;;3.13;;
50932;SDS011;36921;49.006;9.292;2024-01-16T03:09:50;9.05;;;3.15;;
50932;SDS011;36921;49.006;9.292;2024-01-16T03:12:16;7.20;;;2.88;;
50932;SDS011;36921;49.006;9.292;2024-01-16T03:14:42;11.48;;;3.17;;
50932;SDS011;36921;49.006;9.292;2024-01-16T03:17:07;5.28;;;2.60;;
50932;SDS011;36921;49.006;9.292;2024-01-16T03:19:33;9.43;;;3.35;;
50932;SDS011;36921;49.006;9.292;2024-01-16T03:21:58;8.77;;;3.10;;
50932;SDS011;36921;49.006;9.292;2024-01-16T03:24:24;7.63;;;2.70;;
50932;SDS011;36921;49.006;9.292;2024-01-16T03:26:49;10.20;;;3.25;;
50932;SDS011;36921;49.006;9.292;2024-01-16T03:29:14;7.68;;;3.35;;
50932;SDS011;36921;49.006;9.292;2024-01-16T03:31:40;6.15;;;2.97;;
50932;SDS011;36921;49.006;9.292;2024-01-16T03:34:05;6.22;;;2.88;;
50932;SDS011;36921;49.006;9.292;2024-01-16T03:36:33;9.07;;;2.70;;
50932;SDS011;36921;49.006;9.292;2024-01-16T03:38:59;9.07;;;2.90;;
50932;SDS011;36921;49.006;9.292;2024-01-16T03:41:24;9.90;;;2.95;;
50932;SDS011;36921;49.006;9.292;2024-01-16T03:43:50;6.63;;;2.85;;
50932;SDS011;36921;49.006;9.292;2024-01-16T03:46:15;6.22;;;3.10;;
50932;SDS011;36921;49.006;9.292;2024-01-16T03:48:40;6.55;;;2.67;;
50932;SDS011;36921;49.006;9.292;2024-01-16T03:51:06;7.55;;;3.05;;
50932;SDS011;36921;49.006;9.292;2024-01-16T03:53:31;9.30;;;2.85;;
50932;SDS011;36921;49.006;9.292;2024-01-16T03:55:57;7.72;;;2.85;;
50932;SDS011;36921;49.006;9.292;2024-01-16T03:58:22;6.47;;;3.22;;
50932;SDS011;36921;49.006;9.292;2024-01-16T04:00:48;6.00;;;3.05;;
50932;SDS011;36921;49.006;9.292;2024-01-16T04:03:17;8.57;;;3.28;;
50932;SDS011;36921;49.006;9.292;2024-01-16T04:05:42;10.60;;;2.90;;
50932;SDS011;36921;49.006;9.292;2024-01-16T04:08:07;9.48;;;3.33;;
50932;SDS011;36921;49.006;9.292;2024-01-16T04:10:33;6.30;;;2.75;;
50932;SDS011;36921;49.006;9.292;2024-01-16T04:13:02;11.05;;;2.80;;
50932;SDS011;36921;49.006;9.292;2024-01-16T04:17:53;6.20;;;2.75;;
50932;SDS011;36921;49.006;9.292;2024-01-16T04:20:19;7.78;;;2.78;;
50932;SDS011;36921;49.006;9.292;2024-01-16T04:22:45;7.47;;;3.35;;
50932;SDS011;36921;49.006;9.292;2024-01-16T04:25:10;9.27;;;3.13;;
50932;SDS011;36921;49.006;9.292;2024-01-16T04:27:36;6.32;;;3.10;;
50932;SDS011;36921;49.006;9.292;2024-01-16T04:30:01;7.28;;;2.88;;
50932;SDS011;36921;49.006;9.292;2024-01-16T04:32:27;6.18;;;3.53;;
50932;SDS011;36921;49.006;9.292;2024-01-16T04:34:52;10.45;;;3.78;;
50932;SDS011;36921;49.006;9.292;2024-01-16T04:37:18;9.45;;;3.38;;
50932;SDS011;36921;49.006;9.292;2024-01-16T04:39:43;6.65;;;2.65;;
50932;SDS011;36921;49.006;9.292;2024-01-16T04:42:08;10.07;;;3.33;;
50932;SDS011;36921;49.006;9.292;2024-01-16T04:44:34;9.93;;;3.35;;
50932;SDS011;36921;49.006;9.292;2024-01-16T04:46:59;10.25;;;3.15;;
50932;SDS011;36921;49.006;9.292;2024-01-16T04:49:25;5.57;;;2.70;;
50932;SDS011;36921;49.006;9.292;2024-01-16T04:51:50;8.13;;;2.58;;
50932;SDS011;36921;49.006;9.292;2024-01-16T04:54:15;6.40;;;2.72;;
50932;SDS011;36921;49.006;9.292;2024-01-16T04:56:41;9.20;;;3.08;;
50932;SDS011;36921;49.006;9.292;2024-01-16T04:59:06;10.18;;;3.42;;
50932;SDS011;36921;49.006;9.292;2024-01-16T05:01:32;8.88;;;3.17;;
50932;SDS011;36921;49.006;9.292;2024-01-16T05:03:57;7.28;;;3.08;;
50932;SDS011;36921;49.006;9.292;2024-01-16T05:06:23;8.40;;;3.13;;
50932;SDS011;36921;49.006;9.292;2024-01-16T05:08:48;12.57;;;3.22;;
50932;SDS011;36921;49.006;9.292;2024-01-16T05:11:13;5.50;;;2.95;;
50932;SDS011;36921;49.006;9.292;2024-01-16T05:13:39;8.07;;;3.30;;
50932;SDS011;36921;49.006;9.292;2024-01-16T05:16:05;9.98;;;3.35;;
50932;SDS011;36921;49.006;9.292;2024-01-16T05:18:30;8.50;;;3.55;;
50932;SDS011;36921;49.006;9.292;2024-01-16T05:20:57;7.45;;;3.50;;
50932;SDS011;36921;49.006;9.292;2024-01-16T05:23:23;9.38;;;3.05;;
50932;SDS011;36921;49.006;9.292;2024-01-16T05:25:48;10.52;;;3.10;;
50932;SDS011;36921;49.006;9.292;2024-01-16T05:28:14;16.10;;;4.03;;
50932;SDS011;36921;49.006;9.292;2024-01-16T05:30:40;11.93;;;3.78;;
50932;SDS011;36921;49.006;9.292;2024-01-16T05:33:05;8.00;;;3.58;;
50932;SDS011;36921;49.006;9.292;2024-01-16T05:35:32;9.07;;;3.40;;
50932;SDS011;36921;49.006;9.292;2024-01-16T05:37:57;7.68;;;3.03;;
50932;SDS011;36921;49.006;9.292;2024-01-16T05:40:24;9.20;;;3.70;;
50932;SDS011;36921;49.006;9.292;2024-01-16T05:42:50;14.32;;;3.72;;
50932;SDS011;36921;49.006;9.292;2024-01-16T05:45:15;8.80;;;3.45;;
50932;SDS011;36921;49.006;9.292;2024-01-16T05:47:41;8.73;;;3.88;;
50932;SDS011;36921;49.006;9.292;2024-01-16T05:50:07;11.55;;;3.90;;
50932;SDS011;36921;49.006;9.292;2024-01-16T05:52:33;10.82;;;4.10;;
50932;SDS011;36921;49.006;9.292;2024-01-16T05:54:59;14.65;;;4.75;;
50932;SDS011;36921;49.006;9.292;2024-01-16T05:57:25;13.32;;;4.05;;
50932;SDS011;36921;49.006;9.292;2024-01-16T05:59:51;10.77;;;3.47;;
50932;SDS011;36921;49.006;9.292;2024-01-16T06:02:16;9.48;;;3.38;;
50932;SDS011;36921;49.006;9.292;2024-01-16T06:04:42;14.48;;;5.35;;
50932;SDS011;36921;49.006;9.292;2024-01-16T06:07:07;9.70;;;4.20;;
50932;SDS011;36921;49.006;9.292;2024-01-16T06:09:33;12.15;;;4.53;;
50932;SDS011;36921;49.006;9.292;2024-01-16T06:12:04;12.57;;;4.10;;
50932;SDS011;36921;49.006;9.292;2024-01-16T06:14:30;10.30;;;4.85;;
50932;SDS011;36921;49.006;9.292;2024-01-16T06:16:56;15.88;;;4.35;;
50932;SDS011;36921;49.006;9.292;2024-01-16T06:19:21;16.58;;;5.32;;
50932;SDS011;36921;49.006;9.292;2024-01-16T06:21:46;12.50;;;5.53;;
50932;SDS011;36921;49.006;9.292;2024-01-16T06:24:12;8.90;;;5.35;;
50932;SDS011;36921;49.006;9.292;2024-01-16T06:26:38;14.57;;;5.85;;
50932;SDS011;36921;49.006;9.292;2024-01-16T06:29:04;12.02;;;4.20;;
50932;SDS011;36921;49.006;9.292;2024-01-16T06:31:29;8.40;;;3.60;;
50932;SDS011;36921;49.006;9.292;2024-01-16T06:33:55;7.85;;;3.42;;
50932;SDS011;36921;49.006;9.292;2024-01-16T06:36:20;9.95;;;4.22;;
50932;SDS011;36921;49.006;9.292;2024-01-16T06:38:46;9.52;;;4.25;;
50932;SDS011;36921;49.006;9.292;2024-01-16T06:41:11;13.23;;;4.10;;
50932;SDS011;36921;49.006;9.292;2024-01-16T06:43:37;11.30;;;3.97;;
50932;SDS011;36921;49.006;9.292;2024-01-16T06:46:02;11.68;;;4.60;;
50932;SDS011;36921;49.006;9.292;2024-01-16T06:48:37;12.85;;;4.78;;
50932;SDS011;36921;49.006;9.292;2024-01-16T06:51:03;16.60;;;6.25;;
50932;SDS011;36921;49.006;9.292;2024-01-16T06:53:29;11.10;;;5.22;;
50932;SDS011;36921;49.006;9.292;2024-01-16T06:55:54;13.05;;;4.30;;
50932;SDS011;36921;49.006;9.292;2024-01-16T06:58:20;8.30;;;3.85;;
50932;SDS011;36921;49.006;9.292;2024-01-16T07:00:46;11.30;;;4.50;;
50932;SDS011;36921;49.006;9.292;2024-01-16T07:03:12;7.28;;;3.58;;
50932;SDS011;36921;49.006;9.292;2024-01-16T07:05:39;12.13;;;3.58;;
50932;SDS011;36921;49.006;9.292;2024-01-16T07:08:06;8.70;;;4.00;;
50932;SDS011;36921;49.006;9.292;2024-01-16T07:10:32;8.35;;;3.70;;
50932;SDS011;36921;49.006;9.292;2024-01-16T07:12:59;8.77;;;3.65;;
50932;SDS011;36921;49.006;9.292;2024-01-16T07:15:25;10.38;;;4.30;;
50932;SDS011;36921;49.006;9.292;2024-01-16T07:17:50;11.52;;;5.30;;
50932;SDS011;36921;49.006;9.292;2024-01-16T07:20:16;12.95;;;4.90;;
50932;SDS011;36921;49.006;9.292;2024-01-16T07:22:41;14.30;;;4.22;;
50932;SDS011;36921;49.006;9.292;2024-01-16T07:25:07;8.77;;;3.83;;
50932;SDS011;36921;49.006;9.292;2024-01-16T07:27:33;8.32;;;3.88;;
50932;SDS011;36921;49.006;9.292;2024-01-16T07:29:59;8.48;;;4.18;;
50932;SDS011;36921;49.006;9.292;2024-01-16T07:32:25;9.13;;;3.75;;
50932;SDS011;36921;49.006;9.292;2024-01-16T07:34:50;9.75;;;4.05;;
50932;SDS011;36921;49.006;9.292;2024-01-16T07:37:18;11.35;;;3.90;;
50932;SDS011;36921;49.006;9.292;2024-01-16T07:39:43;11.32;;;4.88;;
50932;SDS011;36921;49.006;9.292;2024-01-16T07:42:09;14.57;;;4.72;;
50932;SDS011;36921;49.006;9.292;2024-01-16T07:44:34;13.25;;;5.35;;
50932;SDS011;36921;49.006;9.292;2024-01-16T07:47:01;12.48;;;4.78;;
50932;SDS011;36921;49.006;9.292;2024-01-16T07:49:26;12.18;;;4.40;;
50932;SDS011;36921;49.006;9.292;2024-01-16T07:51:51;11.45;;;4.68;;
50932;SDS011;36921;49.006;9.292;2024-01-16T07:54:17;18.70;;;4.88;;
50932;SDS011;36921;49.006;9.292;2024-01-16T07:56:42;8.15;;;4.00;;
50932;SDS011;36921;49.006;9.292;2024-01-16T07:59:08;10.57;;;4.00;;
50932;SDS011;36921;49.006;9.292;2024-01-16T08:01:33;12.85;;;3.95;;
50932;SDS011;36921;49.006;9.292;2024-01-16T08:03:58;10.75;;;3.65;;
50932;SDS011;36921;49.006;9.292;2024-01-16T08:06:24;10.70;;;3.83;;
50932;SDS011;36921;49.006;9.292;2024-01-16T08:08:50;8.07;;;3.45;;
50932;SDS011;36921;49.006;9.292;2024-01-16T08:11:16;8.75;;;3.53;;
50932;SDS011;36921;49.006;9.292;2024-01-16T08:13:43;10.38;;;3.65;;
50932;SDS011;36921;49.006;9.292;2024-01-16T08:16:09;7.85;;;3.17;;
50932;SDS011;36921;49.006;9.292;2024-01-16T08:18:34;12.73;;;3.75;;
50932;SDS011;36921;49.006;9.292;2024-01-16T08:21:00;9.27;;;3.80;;
50932;SDS011;36921;49.006;9.292;2024-01-16T08:23:25;8.20;;;3.88;;
50932;SDS011;36921;49.006;9.292;2024-01-16T08:25:50;13.02;;;3.60;;
50932;SDS011;36921;49.006;9.292;2024-01-16T08:28:19;11.25;;;3.58;;
50932;SDS011;36921;49.006;9.292;2024-01-16T08:30:45;12.65;;;4.63;;
50932;SDS011;36921;49.006;9.292;2024-01-16T08:33:11;9.30;;;3.80;;
50932;SDS011;36921;49.006;9.292;2024-01-16T08:35:37;8.50;;;3.55;;
50932;SDS011;36921;49.006;9.292;2024-01-16T08:38:03;14.43;;;3.78;;
50932;SDS011;36921;49.006;9.292;2024-01-16T08:40:28;10.18;;;3.85;;
50932;SDS011;36921;49.006;9.292;2024-01-16T08:42:54;10.35;;;3.72;;
50932;SDS011;36921;49.006;9.292;2024-01-16T08:45:22;9.10;;;3.85;;
50932;SDS011;36921;49.006;9.292;2024-01-16T08:47:48;8.85;;;3.10;;
50932;SDS011;36921;49.006;9.292;2024-01-16T08:50:15;8.65;;;3.88;;
50932;SDS011;36921;49.006;9.292;2024-01-16T08:55:16;9.80;;;3.78;;
50932;SDS011;36921;49.006;9.292;2024-01-16T08:57:47;8.30;;;3.40;;
50932;SDS011;36921;49.006;9.292;2024-01-16T09:02:58;8.45;;;3.58;;
50932;SDS011;36921;49.006;9.292;2024-01-16T09:05:23;9.93;;;3.83;;
50932;SDS011;36921;49.006;9.292;2024-01-16T09:07:56;7.63;;;3.25;;
50932;SDS011;36921;49.006;9.292;2024-01-16T09:10:22;10.98;;;3.65;;
50932;SDS011;36921;49.006;9.292;2024-01-16T09:12:47;9.32;;;3.58;;
50932;SDS011;36921;49.006;9.292;2024-01-16T09:15:15;9.40;;;3.60;;
50932;SDS011;36921;49.006;9.292;2024-01-16T09:17:40;7.65;;;3.45;;
50932;SDS011;36921;49.006;9.292;2024-01-16T09:20:06;9.48;;;3.63;;
50932;SDS011;36921;49.006;9.292;2024-01-16T09:22:44;9.93;;;3.40;;
50932;SDS011;36921;49.006;9.292;2024-01-16T09:25:09;8.77;;;3.63;;
50932;SDS011;36921;49.006;9.292;2024-01-16T09:27:35;10.88;;;3.65;;
50932;SDS011;36921;49.006;9.292;2024-01-16T09:30:03;11.00;;;3.95;;
50932;SDS011;36921;49.006;9.292;2024-01-16T09:32:30;9.52;;;3.88;;
50932;SDS011;36921;49.006;9.292;2024-01-16T09:34:55;7.60;;;3.60;;
50932;SDS011;36921;49.006;9.292;2024-01-16T09:40:08;9.98;;;4.20;;
50932;SDS011;36921;49.006;9.292;2024-01-16T09:42:33;10.38;;;4.15;;
50932;SDS011;36921;49.006;9.292;2024-01-16T09:45:11;7.20;;;4.00;;
50932;SDS011;36921;49.006;9.292;2024-01-16T09:47:43;8.35;;;3.90;;
50932;SDS011;36921;49.006;9.292;2024-01-16T09:50:11;7.10;;;3.33;;
50932;SDS011;36921;49.006;9.292;2024-01-16T09:52:38;7.28;;;3.47;;
50932;SDS011;36921;49.006;9.292;2024-01-16T09:55:04;7.30;;;3.70;;
50932;SDS011;36921;49.006;9.292;2024-01-16T09:57:30;6.55;;;3.13;;
50932;SDS011;36921;49.006;9.292;2024-01-16T09:59:58;6.75;;;3.42;;
50932;SDS011;36921;49.006;9.292;2024-01-16T10:02:25;7.65;;;3.28;;
50932;SDS011;36921;49.006;9.292;2024-01-16T10:04:52;8.77;;;3.40;;
50932;SDS011;36921;49.006;9.292;2024-01-16T10:07:17;11.23;;;3.58;;
50932;SDS011;36921;49.006;9.292;2024-01-16T10:09:50;7.93;;;2.38;;
50932;SDS011;36921;49.006;9.292;2024-01-16T10:12:16;9.98;;;3.10;;
50932;SDS011;36921;49.006;9.292;2024-01-16T10:14:42;7.85;;;3.10;;
50932;SDS011;36921;49.006;9.292;2024-01-16T10:17:08;8.45;;;3.15;;
50932;SDS011;36921;49.006;9.292;2024-01-16T10:22:12;7.00;;;2.75;;
50932;SDS011;36921;49.006;9.292;2024-01-16T10:24:37;6.32;;;2.97;;
50932;SDS011;36921;49.006;9.292;2024-01-16T10:27:03;10.65;;;3.08;;
50932;SDS011;36921;49.006;9.292;2024-01-16T10:29:29;8.23;;;2.72;;
50932;SDS011;36921;49.006;9.292;2024-01-16T10:31:57;6.93;;;2.90;;
50932;SDS011;36921;49.006;9.292;2024-01-16T10:34:23;7.32;;;3.10;;
50932;SDS011;36921;49.006;9.292;2024-01-16T10:36:50;10.40;;;3.45;;
50932;SDS011;36921;49.006;9.292;2024-01-16T10:39:17;6.70;;;3.13;;
50932;SDS011;36921;49.006;9.292;2024-01-16T10:41:48;7.57;;;2.97;;
50932;SDS011;36921;49.006;9.292;2024-01-16T10:44:19;5.40;;;2.47;;
50932;SDS011;36921;49.006;9.292;2024-01-16T10:46:44;8.40;;;3.20;;
50932;SDS011;36921;49.006;9.292;2024-01-16T10:49:10;5.50;;;3.03;;
50932;SDS011;36921;49.006;9.292;2024-01-16T10:51:35;8.35;;;3.20;;
50932;SDS011;36921;49.006;9.292;2024-01-16T10:54:03;8.52;;;3.10;;
50932;SDS011;36921;49.006;9.292;2024-01-16T10:56:35;6.45;;;2.70;;
50932;SDS011;36921;49.006;9.292;2024-01-16T10:59:06;7.03;;;2.95;;
50932;SDS011;36921;49.006;9.292;2024-01-16T11:01:59;6.30;;;2.60;;
50932;SDS011;36921;49.006;9.292;2024-01-16T11:04:28;7.07;;;3.28;;
50932;SDS011;36921;49.006;9.292;2024-01-16T11:06:54;9.75;;;3.13;;
50932;SDS011;36921;49.006;9.292;2024-01-16T11:09:23;7.20;;;3.28;;
50932;SDS011;36921;49.006;9.292;2024-01-16T11:11:49;9.48;;;3.10;;
50932;SDS011;36921;49.006;9.292;2024-01-16T11:14:18;6.78;;;3.53;;
50932;SDS011;36921;49.006;9.292;2024-01-16T11:16:47;7.47;;;3.35;;
50932;SDS011;36921;49.006;9.292;2024-01-16T11:19:13;8.80;;;3.20;;
50932;SDS011;36921;49.006;9.292;2024-01-16T11:21:41;8.30;;;3.17;;
50932;SDS011;36921;49.006;9.292;2024-01-16T11:24:07;7.85;;;2.97;;
50932;SDS011;36921;49.006;9.292;2024-01-16T11:26:37;7.50;;;2.90;;
50932;SDS011;36921;49.006;9.292;2024-01-16T11:31:52;6.75;;;3.40;;
50932;SDS011;36921;49.006;9.292;2024-01-16T11:37:07;8.38;;;3.47;;
50932;SDS011;36921;49.006;9.292;2024-01-16T11:39:32;7.40;;;3.13;;
50932;SDS011;36921;49.006;9.292;2024-01-16T11:41:58;11.35;;;2.92;;
50932;SDS011;36921;49.006;9.292;2024-01-16T11:47:20;7.57;;;2.65;;
50932;SDS011;36921;49.006;9.292;2024-01-16T11:49:47;7.00;;;3.22;;
50932;SDS011;36921;49.006;9.292;2024-01-16T11:52:14;7.00;;;3.25;;
50932;SDS011;36921;49.006;9.292;2024-01-16T11:54:40;9.60;;;3.30;;
50932;SDS011;36921;49.006;9.292;2024-01-16T12:02:14;4.68;;;2.58;;
50932;SDS011;36921;49.006;9.292;2024-01-16T12:04:55;5.60;;;3.30;;
50932;SDS011;36921;49.006;9.292;2024-01-16T12:07:25;8.25;;;3.10;;
50932;SDS011;36921;49.006;9.292;2024-01-16T12:09:50;6.72;;;3.00;;
50932;SDS011;36921;49.006;9.292;2024-01-16T12:12:15;5.90;;;3.40;;
50932;SDS011;36921;49.006;9.292;2024-01-16T12:14:50;8.85;;;3.58;;
50932;SDS011;36921;49.006;9.292;2024-01-16T12:17:17;6.13;;;2.75;;
50932;SDS011;36921;49.006;9.292;2024-01-16T12:19:45;6.47;;;2.60;;
50932;SDS011;36921;49.006;9.292;2024-01-16T12:22:14;5.07;;;2.60;;
50932;SDS011;36921;49.006;9.292;2024-01-16T12:24:41;5.13;;;2.63;;
50932;SDS011;36921;49.006;9.292;2024-01-16T12:27:07;5.88;;;2.60;;
50932;SDS011;36921;49.006;9.292;2024-01-16T12:29:34;7.13;;;2.88;;
50932;SDS011;36921;49.006;9.292;2024-01-16T12:32:11;7.78;;;3.03;;
50932;SDS011;36921;49.006;9.292;2024-01-16T12:34:43;6.28;;;2.88;;
50932;SDS011;36921;49.006;9.292;2024-01-16T12:37:12;6.78;;;3.00;;
50932;SDS011;36921;49.006;9.292;2024-01-16T12:39:38;4.57;;;2.38;;
50932;SDS011;36921;49.006;9.292;2024-01-16T12:42:04;6.82;;;2.30;;
50932;SDS011;36921;49.006;9.292;2024-01-16T12:44:30;7.50;;;2.53;;
50932;SDS011;36921;49.006;9.292;2024-01-16T12:50:28;9.35;;;3.22;;
50932;SDS011;36921;49.006;9.292;2024-01-16T12:55:26;7.78;;;2.78;;
50932;SDS011;36921;49.006;9.292;2024-01-16T12:58:11;8.13;;;2.60;;
50932;SDS011;36921;49.006;9.292;2024-01-16T13:00:40;4.40;;;1.48;;
50932;SDS011;36921;49.006;9.292;2024-01-16T13:03:05;3.97;;;1.90;;
50932;SDS011;36921;49.006;9.292;2024-01-16T13:05:31;4.15;;;1.85;;
50932;SDS011;36921;49.006;9.292;2024-01-16T13:08:01;10.07;;;2.10;;
50932;SDS011;36921;49.006;9.292;2024-01-16T13:10:29;5.40;;;1.70;;
50932;SDS011;36921;49.006;9.292;2024-01-16T13:13:14;5.25;;;1.60;;
50932;SDS011;36921;49.006;9.292;2024-01-16T13:15:41;2.28;;;1.30;;
50932;SDS011;36921;49.006;9.292;2024-01-16T13:18:16;4.45;;;1.63;;
50932;SDS011;36921;49.006;9.292;2024-01-16T13:20:43;4.00;;;1.15;;
50932;SDS011;36921;49.006;9.292;2024-01-16T13:23:08;4.40;;;1.50;;
50932;SDS011;36921;49.006;9.292;2024-01-16T13:25:34;5.28;;;1.67;;
50932;SDS011;36921;49.006;9.292;2024-01-16T13:27:59;5.65;;;2.20;;
50932;SDS011;36921;49.006;9.292;2024-01-16T13:30:25;7.55;;;2.03;;
50932;SDS011;36921;49.006;9.292;2024-01-16T13:32:50;4.38;;;1.75;;
50932;SDS011;36921;49.006;9.292;2024-01-16T13:35:15;5.28;;;1.92;;
50932;SDS011;36921;49.006;9.292;2024-01-16T13:37:41;3.85;;;1.85;;
50932;SDS011;36921;49.006;9.292;2024-01-16T13:40:06;8.65;;;2.28;;
50932;SDS011;36921;49.006;9.292;2024-01-16T13:42:37;5.32;;;2.70;;
50932;SDS011;36921;49.006;9.292;2024-01-16T13:45:03;9.13;;;1.80;;
50932;SDS011;36921;49.006;9.292;2024-01-16T13:47:29;3.05;;;1.30;;
50932;SDS011;36921;49.006;9.292;2024-01-16T13:49:55;4.60;;;1.88;;
50932;SDS011;36921;49.006;9.292;2024-01-16T13:52:21;2.10;;;1.45;;
50932;SDS011;36921;49.006;9.292;2024-01-16T13:54:47;4.75;;;1.50;;
50932;SDS011;36921;49.006;9.292;2024-01-16T13:57:12;4.53;;;1.50;;
50932;SDS011;36921;49.006;9.292;2024-01-16T13:59:38;4.45;;;1.60;;
50932;SDS011;36921;49.006;9.292;2024-01-16T14:02:03;3.78;;;1.60;;
50932;SDS011;36921;49.006;9.292;2024-01-16T14:04:30;6.80;;;1.98;;
50932;SDS011;36921;49.006;9.292;2024-01-16T14:06:55;2.65;;;1.38;;
50932;SDS011;36921;49.006;9.292;2024-01-16T14:09:21;4.90;;;1.80;;
50932;SDS011;36921;49.006;9.292;2024-01-16T14:11:46;6.55;;;1.52;;
50932;SDS011;36921;49.006;9.292;2024-01-16T14:14:11;3.80;;;1.77;;
50932;SDS011;36921;49.006;9.292;2024-01-16T14:16:38;7.70;;;2.00;;
50932;SDS011;36921;49.006;9.292;2024-01-16T14:19:03;4.82;;;1.77;;
50932;SDS011;36921;49.006;9.292;2024-01-16T14:21:29;5.97;;;1.55;;
50932;SDS011;36921;49.006;9.292;2024-01-16T14:23:55;5.30;;;1.60;;
50932;SDS011;36921;49.006;9.292;2024-01-16T14:26:20;3.85;;;1.55;;
50932;SDS011;36921;49.006;9.292;2024-01-16T14:28:46;4.13;;;1.90;;
50932;SDS011;36921;49.006;9.292;2024-01-16T14:31:11;6.20;;;1.60;;
50932;SDS011;36921;49.006;9.292;2024-01-16T14:33:37;6.03;;;1.58;;
50932;SDS011;36921;49.006;9.292;2024-01-16T14:36:02;6.88;;;1.70;;
50932;SDS011;36921;49.006;9.292;2024-01-16T14:38:28;5.03;;;1.60;;
50932;SDS011;36921;49.006;9.292;2024-01-16T14:40:53;5.72;;;1.65;;
50932;SDS011;36921;49.006;9.292;2024-01-16T14:43:21;4.53;;;1.70;;
50932;SDS011;36921;49.006;9.292;2024-01-16T14:45:46;3.42;;;1.52;;
50932;SDS011;36921;49.006;9.292;2024-01-16T14:48:12;4.18;;;1.45;;
50932;SDS011;36921;49.006;9.292;2024-01-16T14:50:38;4.53;;;1.65;;
50932;SDS011;36921;49.006;9.292;2024-01-16T14:53:04;6.07;;;1.67;;
50932;SDS011;36921;49.006;9.292;2024-01-16T14:55:30;11.02;;;1.52;;
50932;SDS011;36921;49.006;9.292;2024-01-16T14:57:57;7.78;;;2.42;;
50932;SDS011;36921;49.006;9.292;2024-01-16T15:00:25;6.15;;;2.00;;
50932;SDS011;36921;49.006;9.292;2024-01-16T15:02:53;6.95;;;1.77;;
50932;SDS011;36921;49.006;9.292;2024-01-16T15:05:19;4.22;;;1.33;;
50932;SDS011;36921;49.006;9.292;2024-01-16T15:07:46;3.78;;;1.30;;
50932;SDS011;36921;49.006;9.292;2024-01-16T15:10:12;14.82;;;5.82;;
50932;SDS011;36921;49.006;9.292;2024-01-16T15:12:39;7.90;;;1.98;;
50932;SDS011;36921;49.006;9.292;2024-01-16T15:15:06;4.30;;;1.42;;
50932;SDS011;36921;49.006;9.292;2024-01-16T15:17:33;5.88;;;1.77;;
50932;SDS011;36921;49.006;9.292;2024-01-16T15:19:58;5.30;;;1.40;;
50932;SDS011;36921;49.006;9.292;2024-01-16T15:22:23;7.88;;;2.65;;
50932;SDS011;36921;49.006;9.292;2024-01-16T15:24:49;5.35;;;1.50;;
50932;SDS011;36921;49.006;9.292;2024-01-16T15:27:14;5.38;;;2.03;;
50932;SDS011;36921;49.006;9.292;2024-01-16T15:29:40;7.03;;;1.45;;
50932;SDS011;36921;49.006;9.292;2024-01-16T15:32:06;5.93;;;1.90;;
50932;SDS011;36921;49.006;9.292;2024-01-16T15:34:31;3.20;;;1.73;;
50932;SDS011;36921;49.006;9.292;2024-01-16T15:36:57;4.07;;;1.50;;
50932;SDS011;36921;49.006;9.292;2024-01-16T15:39:24;3.58;;;1.60;;
50932;SDS011;36921;49.006;9.292;2024-01-16T15:41:50;3.78;;;1.45;;
50932;SDS011;36921;49.006;9.292;2024-01-16T15:44:15;5.68;;;1.90;;